createdAt,value
2023-02-17T00:00:04.961Z,-0.13
2023-02-17T00:03:13.505Z,0.00
2023-02-17T00:06:21.969Z,0.09
2023-02-17T00:09:30.951Z,0.11
2023-02-17T00:12:36.515Z,0.05
2023-02-17T00:15:43.094Z,0.04
2023-02-17T00:18:49.318Z,0.07
2023-02-17T00:21:58.415Z,-0.21
2023-02-17T00:25:07.093Z,0.18
2023-02-17T00:28:13.434Z,0.29
2023-02-17T00:31:24.308Z,0.34
2023-02-17T00:34:30.972Z,0.36
2023-02-17T00:37:38.712Z,0.42
2023-02-17T00:40:48.013Z,0.47
2023-02-17T00:43:53.433Z,0.49
2023-02-17T00:47:01.500Z,0.54
2023-02-17T00:50:07.480Z,0.50
2023-02-17T00:53:13.670Z,0.50
2023-02-17T00:56:22.240Z,0.50
2023-02-17T00:59:28.460Z,0.52
2023-02-17T01:02:33.853Z,0.58
2023-02-17T01:05:45.421Z,0.55
2023-02-17T01:08:53.257Z,0.57
2023-02-17T01:12:02.827Z,0.63
2023-02-17T01:15:12.035Z,0.64
2023-02-17T01:18:20.757Z,0.61
2023-02-17T01:21:31.903Z,0.55
2023-02-17T01:24:38.498Z,0.53
2023-02-17T01:27:47.302Z,0.46
2023-02-17T01:30:53.857Z,0.41
2023-02-17T01:34:02.893Z,0.36
2023-02-17T01:37:09.463Z,0.35
2023-02-17T01:40:17.138Z,0.31
2023-02-17T01:43:26.331Z,0.20
2023-02-17T01:46:31.767Z,0.11
2023-02-17T01:49:44.423Z,-0.01
2023-02-17T01:52:58.145Z,-0.21
2023-02-17T01:56:07.039Z,-0.23
2023-02-17T01:59:23.870Z,-0.36
2023-02-17T02:02:32.268Z,-0.40
2023-02-17T02:05:38.707Z,-0.48
2023-02-17T02:08:57.949Z,-0.51
2023-02-17T02:12:03.378Z,-0.76
2023-02-17T02:15:27.044Z,-0.62
2023-02-17T02:18:57.863Z,-0.56
2023-02-17T02:22:40.345Z,-0.55
2023-02-17T02:26:35.912Z,-0.52
2023-02-17T02:30:34.971Z,-0.44
2023-02-17T02:33:53.987Z,-0.36
2023-02-17T02:37:12.254Z,-0.35
2023-02-17T02:40:26.721Z,-0.32
2023-02-17T02:43:35.466Z,-0.43
2023-02-17T02:46:40.995Z,-0.32
2023-02-17T02:49:50.287Z,-0.32
2023-02-17T02:53:23.339Z,-0.23
2023-02-17T02:56:52.041Z,-0.12
2023-02-17T03:00:17.432Z,-0.09
2023-02-17T03:03:37.706Z,-0.02
2023-02-17T03:06:56.948Z,0.05
2023-02-17T03:10:04.245Z,0.07
2023-02-17T03:13:10.022Z,0.04
2023-02-17T03:16:17.244Z,-0.04
2023-02-17T03:19:27.763Z,-0.02
2023-02-17T03:22:43.526Z,0.03
2023-02-17T03:25:49.243Z,-0.01
2023-02-17T03:28:56.035Z,0.05
2023-02-17T03:32:02.069Z,0.11
2023-02-17T03:35:09.657Z,0.18
2023-02-17T03:38:17.955Z,0.19
2023-02-17T03:41:24.304Z,0.28
2023-02-17T03:44:29.878Z,0.37
2023-02-17T03:47:36.172Z,0.42
2023-02-17T03:50:41.613Z,0.50
2023-02-17T03:53:52.149Z,0.55
2023-02-17T03:56:59.521Z,0.63
2023-02-17T04:00:07.172Z,0.68
2023-02-17T04:03:18.238Z,0.78
2023-02-17T04:06:25.252Z,0.87
2023-02-17T04:09:33.747Z,0.98
2023-02-17T04:12:40.771Z,1.09
2023-02-17T04:15:46.120Z,1.16
2023-02-17T04:18:52.451Z,1.17
2023-02-17T04:21:57.876Z,1.23
2023-02-17T04:25:07.036Z,1.17
2023-02-17T04:28:13.026Z,1.29
2023-02-17T04:31:19.496Z,1.33
2023-02-17T04:34:24.995Z,1.41
2023-02-17T04:37:31.272Z,1.48
2023-02-17T04:40:39.791Z,1.64
2023-02-17T04:43:46.100Z,1.73
2023-02-17T04:46:51.469Z,1.71
2023-02-17T04:49:58.413Z,1.83
2023-02-17T04:53:03.860Z,1.94
2023-02-17T04:56:13.187Z,1.97
2023-02-17T04:59:18.629Z,2.00
2023-02-17T05:02:27.003Z,2.03
2023-02-17T05:05:32.716Z,2.02
2023-02-17T05:08:39.000Z,2.05
2023-02-17T05:11:47.249Z,2.12
2023-02-17T05:14:53.503Z,2.16
2023-02-17T05:17:58.965Z,2.17
2023-02-17T05:21:05.368Z,2.22
2023-02-17T05:24:11.317Z,2.27
2023-02-17T05:27:20.699Z,2.29
2023-02-17T05:30:26.678Z,2.22
2023-02-17T05:33:33.569Z,2.29
2023-02-17T05:36:38.965Z,2.24
2023-02-17T05:39:45.384Z,2.17
2023-02-17T05:42:53.595Z,2.17
2023-02-17T05:45:59.905Z,2.17
2023-02-17T05:49:05.371Z,2.25
2023-02-17T05:52:11.767Z,2.27
2023-02-17T05:55:17.654Z,2.31
2023-02-17T05:58:27.619Z,2.34
2023-02-17T06:01:34.000Z,2.42
2023-02-17T06:04:41.715Z,2.43
2023-02-17T06:07:50.562Z,2.54
2023-02-17T06:10:57.758Z,2.59
2023-02-17T06:14:06.576Z,2.52
2023-02-17T06:17:13.097Z,2.66
2023-02-17T06:20:19.590Z,2.65
2023-02-17T06:23:26.467Z,2.70
2023-02-17T06:26:32.152Z,2.70
2023-02-17T06:29:41.520Z,2.67
2023-02-17T06:32:47.290Z,2.71
2023-02-17T06:35:54.848Z,2.67
2023-02-17T06:39:00.230Z,2.62
2023-02-17T06:42:07.186Z,1.40
2023-02-17T06:45:19.633Z,2.67
2023-02-17T06:48:26.202Z,2.68
2023-02-17T06:51:31.885Z,2.77
2023-02-17T06:54:38.253Z,2.89
2023-02-17T06:57:43.660Z,2.91
2023-02-17T07:00:52.934Z,2.99
2023-02-17T07:04:00.133Z,2.95
2023-02-17T07:07:06.687Z,3.03
2023-02-17T07:10:14.317Z,3.13
2023-02-17T07:13:20.644Z,3.21
2023-02-17T07:16:29.054Z,3.23
2023-02-17T07:19:35.746Z,3.35
2023-02-17T07:22:41.773Z,3.40
2023-02-17T07:25:48.159Z,3.46
2023-02-17T07:28:53.540Z,3.57
2023-02-17T07:32:02.677Z,3.57
2023-02-17T07:35:08.775Z,3.75
2023-02-17T07:38:16.005Z,3.84
2023-02-17T07:41:25.290Z,3.88
2023-02-17T07:44:32.147Z,3.83
2023-02-17T07:47:40.357Z,3.89
2023-02-17T07:50:46.614Z,3.93
2023-02-17T07:53:55.208Z,3.98
2023-02-17T07:57:01.607Z,4.04
2023-02-17T08:00:10.835Z,4.07
2023-02-17T08:03:23.001Z,4.09
2023-02-17T08:06:29.754Z,4.21
2023-02-17T08:09:51.963Z,4.26
2023-02-17T08:13:13.044Z,4.33
2023-02-17T08:16:19.683Z,4.42
2023-02-17T08:19:39.621Z,4.46
2023-02-17T08:22:53.186Z,4.52
2023-02-17T08:26:00.848Z,4.54
2023-02-17T08:29:07.669Z,4.58
2023-02-17T08:32:13.741Z,4.62
2023-02-17T08:35:23.279Z,4.58
2023-02-17T08:38:29.089Z,4.58
2023-02-17T08:41:40.070Z,4.62
2023-02-17T08:44:45.732Z,4.62
2023-02-17T08:47:51.989Z,4.67
2023-02-17T08:51:00.133Z,4.62
2023-02-17T08:54:10.528Z,4.65
2023-02-17T08:57:16.060Z,4.71
2023-02-17T09:00:23.084Z,4.76
2023-02-17T09:03:29.477Z,4.84
2023-02-17T09:06:42.482Z,4.84
2023-02-17T09:09:48.284Z,4.78
2023-02-17T09:13:01.999Z,4.80
2023-02-17T09:16:08.428Z,4.82
2023-02-17T09:19:15.565Z,4.74
2023-02-17T09:22:32.120Z,4.79
2023-02-17T09:25:38.893Z,4.50
2023-02-17T09:28:45.779Z,4.88
2023-02-17T09:31:52.080Z,4.89
2023-02-17T09:34:59.107Z,4.80
2023-02-17T09:38:10.485Z,4.79
2023-02-17T09:41:24.348Z,4.63
2023-02-17T09:44:45.259Z,4.69
2023-02-17T09:47:56.283Z,4.69
2023-02-17T09:51:13.302Z,4.57
2023-02-17T09:54:31.541Z,4.56
2023-02-17T09:57:47.243Z,4.59
2023-02-17T10:01:00.025Z,4.60
2023-02-17T10:04:18.357Z,4.60
2023-02-17T10:07:34.351Z,4.56
2023-02-17T10:10:57.204Z,4.46
2023-02-17T10:14:17.104Z,4.31
2023-02-17T10:17:37.929Z,4.16
2023-02-17T10:20:52.424Z,4.10
2023-02-17T10:24:02.211Z,2.64
2023-02-17T10:27:37.563Z,3.95
2023-02-17T10:31:05.231Z,4.05
2023-02-17T10:34:29.264Z,4.12
2023-02-17T10:37:50.409Z,4.12
2023-02-17T10:40:59.574Z,4.03
2023-02-17T10:44:17.543Z,4.10
2023-02-17T10:47:25.598Z,4.25
2023-02-17T10:50:33.370Z,4.44
2023-02-17T10:53:44.113Z,4.47
2023-02-17T10:56:58.074Z,4.49
2023-02-17T11:00:09.410Z,4.59
2023-02-17T11:03:24.049Z,4.67
2023-02-17T11:06:29.616Z,4.69
2023-02-17T11:09:37.937Z,4.73
2023-02-17T11:12:45.933Z,4.82
2023-02-17T11:15:55.070Z,4.80
2023-02-17T11:19:00.681Z,4.75
2023-02-17T11:22:29.043Z,4.87
2023-02-17T11:25:39.060Z,4.95
2023-02-17T11:28:45.321Z,4.96
2023-02-17T11:32:05.076Z,5.11
2023-02-17T11:35:28.072Z,5.28
2023-02-17T11:38:48.092Z,5.44
2023-02-17T11:41:54.618Z,5.36
2023-02-17T11:45:03.303Z,5.25
2023-02-17T11:48:55.656Z,5.24
2023-02-17T11:52:24.829Z,5.23
2023-02-17T11:55:47.521Z,5.20
2023-02-17T11:59:32.832Z,4.90
2023-02-17T12:03:06.036Z,4.98
2023-02-17T12:06:24.413Z,4.93
2023-02-17T12:09:45.516Z,4.90
2023-02-17T12:13:24.624Z,3.37
2023-02-17T12:16:51.426Z,4.91
2023-02-17T12:20:18.247Z,4.79
2023-02-17T12:24:06.983Z,4.98
2023-02-17T12:27:36.610Z,5.05
2023-02-17T12:31:05.585Z,5.00
2023-02-17T12:34:28.577Z,4.99
2023-02-17T12:37:49.110Z,5.02
2023-02-17T12:41:09.731Z,4.93
2023-02-17T12:44:24.108Z,4.93
2023-02-17T12:47:42.228Z,4.87
2023-02-17T12:51:03.756Z,4.77
2023-02-17T12:54:23.567Z,4.79
2023-02-17T12:57:53.524Z,4.76
2023-02-17T13:01:13.642Z,5.02
2023-02-17T13:04:26.472Z,4.99
2023-02-17T13:07:51.426Z,5.03
2023-02-17T13:11:07.535Z,5.08
2023-02-17T13:14:31.923Z,5.05
2023-02-17T13:17:54.985Z,5.06
2023-02-17T13:21:04.990Z,5.06
2023-02-17T13:24:33.731Z,5.08
2023-02-17T13:27:42.858Z,5.09
2023-02-17T13:30:54.300Z,5.16
2023-02-17T13:34:02.722Z,5.30
2023-02-17T13:37:28.459Z,5.27
2023-02-17T13:40:43.617Z,5.31
2023-02-17T13:43:50.123Z,5.39
2023-02-17T13:47:05.419Z,5.42
2023-02-17T13:50:35.591Z,5.48
2023-02-17T13:53:44.022Z,5.34
2023-02-17T13:56:56.422Z,5.41
2023-02-17T14:00:24.421Z,5.43
2023-02-17T14:03:44.228Z,5.43
2023-02-17T14:06:51.148Z,5.56
2023-02-17T14:09:58.618Z,5.41
2023-02-17T14:13:04.378Z,5.44
2023-02-17T14:16:28.971Z,5.45
2023-02-17T14:19:50.792Z,5.51
2023-02-17T14:23:06.935Z,5.50
2023-02-17T14:26:28.953Z,5.45
2023-02-17T14:29:46.025Z,5.31
2023-02-17T14:32:51.495Z,5.18
2023-02-17T14:36:08.233Z,5.21
2023-02-17T14:39:18.665Z,5.21
2023-02-17T14:42:24.982Z,5.28
2023-02-17T14:45:30.455Z,5.32
2023-02-17T14:48:36.887Z,5.23
2023-02-17T14:51:45.053Z,5.08
2023-02-17T14:54:52.169Z,5.03
2023-02-17T14:57:58.190Z,4.98
2023-02-17T15:01:05.948Z,4.90
2023-02-17T15:04:11.357Z,4.65
2023-02-17T15:07:22.506Z,4.73
2023-02-17T15:10:32.055Z,4.65
2023-02-17T15:13:38.456Z,4.56
2023-02-17T15:16:44.304Z,4.66
2023-02-17T15:19:50.568Z,4.64
2023-02-17T15:23:02.025Z,4.62
2023-02-17T15:26:12.596Z,4.67
2023-02-17T15:29:21.090Z,4.74
2023-02-17T15:32:27.710Z,4.71
2023-02-17T15:35:33.463Z,4.68
2023-02-17T15:38:42.630Z,4.73
2023-02-17T15:41:50.480Z,4.62
2023-02-17T15:44:56.833Z,4.69
2023-02-17T15:48:09.502Z,4.81
2023-02-17T15:51:19.526Z,4.29
2023-02-17T15:54:27.765Z,4.75
2023-02-17T15:57:34.101Z,4.87
2023-02-17T16:00:39.813Z,4.91
2023-02-17T16:03:46.333Z,4.95
2023-02-17T16:06:52.054Z,4.96
2023-02-17T16:10:01.285Z,5.02
2023-02-17T16:13:08.431Z,5.11
2023-02-17T16:16:22.187Z,5.16
2023-02-17T16:19:28.632Z,5.17
2023-02-17T16:22:34.913Z,5.04
2023-02-17T16:25:47.886Z,5.11
2023-02-17T16:28:54.680Z,5.22
2023-02-17T16:32:00.245Z,5.23
2023-02-17T16:35:06.646Z,5.27
2023-02-17T16:38:22.699Z,5.16
2023-02-17T16:41:32.205Z,5.30
2023-02-17T16:44:38.070Z,5.26
2023-02-17T16:47:47.249Z,5.28
2023-02-17T16:50:52.726Z,5.37
2023-02-17T16:53:59.499Z,5.31
2023-02-17T16:57:08.179Z,5.48
2023-02-17T17:00:17.146Z,5.50
2023-02-17T17:03:24.173Z,5.39
2023-02-17T17:06:33.153Z,5.53
2023-02-17T17:09:38.537Z,5.53
2023-02-17T17:12:49.382Z,5.30
2023-02-17T17:15:56.656Z,5.56
2023-02-17T17:19:04.176Z,5.57
2023-02-17T17:22:09.590Z,5.41
2023-02-17T17:25:16.392Z,5.66
2023-02-17T17:28:24.932Z,5.62
2023-02-17T17:31:32.273Z,5.65
2023-02-17T17:34:37.693Z,5.75
2023-02-17T17:37:44.430Z,5.51
2023-02-17T17:40:53.592Z,5.59
2023-02-17T17:44:02.857Z,5.68
2023-02-17T17:47:09.232Z,5.71
2023-02-17T17:50:23.423Z,5.66
2023-02-17T17:53:28.959Z,5.65
2023-02-17T17:56:39.526Z,5.71
2023-02-17T17:59:47.983Z,5.64
2023-02-17T18:02:54.276Z,5.41
2023-02-17T18:05:59.971Z,5.30
2023-02-17T18:09:10.827Z,5.24
2023-02-17T18:12:23.775Z,5.18
2023-02-17T18:15:32.970Z,5.11
2023-02-17T18:18:40.603Z,5.18
2023-02-17T18:21:47.951Z,5.06
2023-02-17T18:24:53.502Z,5.04
2023-02-17T18:27:59.808Z,5.06
2023-02-17T18:31:15.484Z,5.00
2023-02-17T18:34:21.988Z,5.07
2023-02-17T18:37:27.601Z,5.18
2023-02-17T18:40:34.490Z,5.19
2023-02-17T18:43:39.870Z,5.15
2023-02-17T18:46:48.923Z,5.21
2023-02-17T18:49:54.964Z,5.22
2023-02-17T18:53:03.062Z,5.27
2023-02-17T18:56:15.628Z,5.33
2023-02-17T18:59:22.140Z,5.27
2023-02-17T19:02:30.458Z,5.45
2023-02-17T19:05:36.857Z,5.47
2023-02-17T19:08:42.559Z,5.44
2023-02-17T19:11:48.860Z,5.51
2023-02-17T19:14:56.160Z,5.50
2023-02-17T19:18:05.373Z,5.63
2023-02-17T19:21:12.721Z,5.62
2023-02-17T19:24:19.695Z,5.67
2023-02-17T19:27:25.847Z,5.51
2023-02-17T19:30:32.447Z,5.56
2023-02-17T19:33:40.930Z,5.42
2023-02-17T19:36:47.268Z,5.32
2023-02-17T19:39:52.800Z,5.24
2023-02-17T19:42:59.137Z,5.25
2023-02-17T19:46:05.362Z,5.14
2023-02-17T19:49:17.538Z,5.06
2023-02-17T19:52:23.082Z,5.01
2023-02-17T19:55:30.287Z,5.06
2023-02-17T19:58:39.666Z,5.04
2023-02-17T20:01:46.317Z,5.02
2023-02-17T20:04:54.544Z,4.99
2023-02-17T20:08:00.882Z,5.03
2023-02-17T20:11:09.452Z,5.07
2023-02-17T20:14:15.809Z,5.17
2023-02-17T20:17:21.701Z,5.17
2023-02-17T20:20:31.100Z,5.28
2023-02-17T20:23:38.196Z,5.27
2023-02-17T20:26:47.705Z,5.23
2023-02-17T20:29:53.240Z,5.30
2023-02-17T20:32:59.548Z,5.32
2023-02-17T20:36:11.194Z,5.36
2023-02-17T20:39:17.661Z,5.42
2023-02-17T20:42:23.235Z,5.34
2023-02-17T20:45:30.320Z,5.55
2023-02-17T20:48:35.905Z,5.54
2023-02-17T20:51:45.099Z,5.68
2023-02-17T20:54:50.982Z,5.81
2023-02-17T20:57:58.147Z,5.84
2023-02-17T21:01:03.551Z,5.82
2023-02-17T21:04:10.696Z,5.86
2023-02-17T21:07:19.165Z,5.96
2023-02-17T21:10:30.692Z,5.95
2023-02-17T21:13:36.514Z,5.96
2023-02-17T21:16:42.970Z,6.06
2023-02-17T21:19:48.640Z,6.12
2023-02-17T21:22:57.953Z,6.25
2023-02-17T21:26:03.449Z,6.31
2023-02-17T21:29:10.047Z,6.34
2023-02-17T21:32:15.509Z,6.43
2023-02-17T21:35:22.047Z,6.39
2023-02-17T21:38:30.303Z,6.45
2023-02-17T21:41:36.616Z,6.47
2023-02-17T21:44:55.221Z,6.45
2023-02-17T21:48:01.720Z,6.46
2023-02-17T21:51:10.552Z,6.47
2023-02-17T21:54:19.774Z,6.63
2023-02-17T21:57:25.237Z,6.56
2023-02-17T22:00:31.559Z,6.61
2023-02-17T22:03:37.673Z,6.72
2023-02-17T22:06:45.613Z,6.55
2023-02-17T22:09:54.127Z,6.64
2023-02-17T22:13:00.362Z,6.60
2023-02-17T22:16:06.279Z,6.61
2023-02-17T22:19:19.185Z,6.68
2023-02-17T22:22:24.629Z,6.66
2023-02-17T22:25:34.247Z,6.62
2023-02-17T22:28:40.104Z,6.67
2023-02-17T22:31:46.594Z,6.58
2023-02-17T22:34:52.155Z,6.48
2023-02-17T22:37:59.890Z,6.46
2023-02-17T22:41:15.391Z,6.32
2023-02-17T22:44:22.391Z,6.24
2023-02-17T22:47:27.776Z,6.24
2023-02-17T22:50:34.095Z,6.12
2023-02-17T22:53:41.243Z,6.25
2023-02-17T22:56:50.311Z,6.27
2023-02-17T22:59:55.807Z,6.20
2023-02-17T23:03:02.288Z,6.23
2023-02-17T23:06:13.339Z,6.25
2023-02-17T23:09:22.901Z,6.05
2023-02-17T23:12:31.341Z,6.07
2023-02-17T23:15:43.717Z,6.07
2023-02-17T23:18:49.168Z,6.10
2023-02-17T23:22:00.034Z,6.10
2023-02-17T23:25:05.500Z,6.06
2023-02-17T23:28:14.730Z,5.95
2023-02-17T23:31:20.272Z,6.02
2023-02-17T23:34:26.680Z,5.98
2023-02-17T23:37:32.120Z,6.12
2023-02-17T23:40:39.228Z,6.22
2023-02-17T23:43:47.517Z,6.26
2023-02-17T23:46:53.863Z,6.34
2023-02-17T23:49:59.741Z,6.37
2023-02-17T23:53:06.108Z,6.37
2023-02-17T23:56:17.599Z,6.37
2023-02-17T23:59:26.879Z,6.37
